createdAt,value
2023-01-28T00:00:44.578Z,2.60
2023-01-28T00:03:08.120Z,2.90
2023-01-28T00:05:21.092Z,3.30
2023-01-28T00:07:33.581Z,3.30
2023-01-28T00:09:46.923Z,3.10
2023-01-28T00:12:00.124Z,3.50
2023-01-28T00:14:14.035Z,3.40
2023-01-28T00:16:28.217Z,3.20
2023-01-28T00:18:41.535Z,3.50
2023-01-28T00:21:04.528Z,3.80
2023-01-28T00:23:17.558Z,3.80
2023-01-28T00:25:30.633Z,3.60
2023-01-28T00:27:43.198Z,4.30
2023-01-28T00:29:56.552Z,3.70
2023-01-28T00:32:09.579Z,3.90
2023-01-28T00:34:22.671Z,3.40
2023-01-28T00:36:40.536Z,3.70
2023-01-28T00:38:58.306Z,3.80
2023-01-28T00:41:19.074Z,2.80
2023-01-28T00:43:31.851Z,3.30
2023-01-28T00:45:45.022Z,3.20
2023-01-28T00:47:57.768Z,3.30
2023-01-28T00:50:11.407Z,3.20
2023-01-28T00:52:24.372Z,2.70
2023-01-28T00:54:37.392Z,3.10
2023-01-28T00:56:50.406Z,3.40
2023-01-28T00:59:02.904Z,3.40
2023-01-28T01:01:18.774Z,3.20
2023-01-28T01:03:31.400Z,3.20
2023-01-28T01:05:44.274Z,2.90
2023-01-28T01:07:56.928Z,4.40
2023-01-28T01:10:10.826Z,2.90
2023-01-28T01:12:23.957Z,3.20
2023-01-28T01:14:36.552Z,2.60
2023-01-28T01:16:49.464Z,2.50
2023-01-28T01:19:07.287Z,2.60
2023-01-28T01:21:25.007Z,3.20
2023-01-28T01:23:37.624Z,2.30
2023-01-28T01:25:50.273Z,2.80
2023-01-28T01:28:02.811Z,2.80
2023-01-28T01:30:18.965Z,2.50
2023-01-28T01:32:36.172Z,2.50
2023-01-28T01:34:48.780Z,2.90
2023-01-28T01:37:01.281Z,2.60
2023-01-28T01:39:15.713Z,3.00
2023-01-28T01:41:43.371Z,3.00
2023-01-28T01:43:58.105Z,2.90
2023-01-28T01:46:10.978Z,6.90
2023-01-28T01:48:27.841Z,4.30
2023-01-28T01:50:44.221Z,3.80
2023-01-28T01:53:01.083Z,3.70
2023-01-28T01:55:20.345Z,4.40
2023-01-28T01:57:36.617Z,5.40
2023-01-28T01:59:49.810Z,3.70
2023-01-28T02:02:06.870Z,3.80
2023-01-28T02:04:28.495Z,3.40
2023-01-28T02:06:43.094Z,3.40
2023-01-28T02:08:59.362Z,5.60
2023-01-28T02:11:13.664Z,5.20
2023-01-28T02:13:30.889Z,5.80
2023-01-28T02:15:46.041Z,4.70
2023-01-28T02:18:00.307Z,4.00
2023-01-28T02:20:16.343Z,3.80
2023-01-28T02:23:10.862Z,2.80
2023-01-28T02:26:08.009Z,3.10
2023-01-28T02:28:30.992Z,2.90
2023-01-28T02:30:52.351Z,2.60
2023-01-28T02:33:09.038Z,3.10
2023-01-28T02:35:29.051Z,3.30
2023-01-28T02:37:47.992Z,2.90
2023-01-28T02:40:05.014Z,4.00
2023-01-28T02:42:22.440Z,6.00
2023-01-28T02:44:35.315Z,6.10
2023-01-28T02:47:04.927Z,4.50
2023-01-28T02:49:21.513Z,4.00
2023-01-28T02:51:43.081Z,4.30
2023-01-28T02:54:01.647Z,3.00
2023-01-28T02:56:30.459Z,2.70
2023-01-28T02:58:50.598Z,2.70
2023-01-28T03:01:11.557Z,2.50
2023-01-28T03:03:30.213Z,2.60
2023-01-28T03:06:05.275Z,2.50
2023-01-28T03:08:35.045Z,2.60
2023-01-28T03:11:00.881Z,2.50
2023-01-28T03:13:31.232Z,2.60
2023-01-28T03:16:06.805Z,2.60
2023-01-28T03:18:40.152Z,2.80
2023-01-28T03:21:14.866Z,2.40
2023-01-28T03:23:52.093Z,3.00
2023-01-28T03:26:27.424Z,3.30
2023-01-28T03:28:59.643Z,3.60
2023-01-28T03:31:32.479Z,3.80
2023-01-28T03:34:04.190Z,3.20
2023-01-28T03:36:35.276Z,3.30
2023-01-28T03:38:49.540Z,3.70
2023-01-28T03:41:04.880Z,4.00
2023-01-28T03:43:18.019Z,3.10
2023-01-28T03:45:33.301Z,3.80
2023-01-28T03:47:47.209Z,3.20
2023-01-28T03:50:03.327Z,3.40
2023-01-28T03:52:21.258Z,3.80
2023-01-28T03:54:34.597Z,3.30
2023-01-28T03:56:47.410Z,3.30
2023-01-28T03:59:00.187Z,3.30
2023-01-28T04:01:14.059Z,3.20
2023-01-28T04:03:28.532Z,3.40
2023-01-28T04:05:50.222Z,2.90
2023-01-28T04:08:02.930Z,3.40
2023-01-28T04:10:38.690Z,3.40
2023-01-28T04:12:58.494Z,3.30
2023-01-28T04:15:18.087Z,3.70
2023-01-28T04:17:31.956Z,3.50
2023-01-28T04:19:44.774Z,3.90
2023-01-28T04:21:58.353Z,3.10
2023-01-28T04:24:12.280Z,3.30
2023-01-28T04:26:24.848Z,3.30
2023-01-28T04:28:37.507Z,4.40
2023-01-28T04:30:51.414Z,4.20
2023-01-28T04:33:10.133Z,5.10
2023-01-28T04:35:52.078Z,5.40
2023-01-28T04:38:19.874Z,5.10
2023-01-28T04:40:39.560Z,3.90
2023-01-28T04:43:01.453Z,4.50
2023-01-28T04:45:23.364Z,3.90
2023-01-28T04:48:05.645Z,3.90
2023-01-28T04:50:30.666Z,4.70
2023-01-28T04:53:19.627Z,4.10
2023-01-28T04:55:38.884Z,3.70
2023-01-28T04:57:52.483Z,4.10
2023-01-28T05:00:06.520Z,4.10
2023-01-28T05:02:19.438Z,4.10
2023-01-28T05:04:34.061Z,3.80
2023-01-28T05:06:46.823Z,4.10
2023-01-28T05:09:02.142Z,3.60
2023-01-28T05:11:16.021Z,3.60
2023-01-28T05:13:30.436Z,4.00
2023-01-28T05:15:43.631Z,3.70
2023-01-28T05:17:57.601Z,3.50
2023-01-28T05:20:13.258Z,3.30
2023-01-28T05:22:26.145Z,4.20
2023-01-28T05:24:56.561Z,3.50
2023-01-28T05:27:10.871Z,3.20
2023-01-28T05:29:23.524Z,4.10
2023-01-28T05:31:37.459Z,3.80
2023-01-28T05:33:50.823Z,3.80
2023-01-28T05:36:03.720Z,3.50
2023-01-28T05:38:16.338Z,3.30
2023-01-28T05:40:29.209Z,3.70
2023-01-28T05:42:42.429Z,3.40
2023-01-28T05:45:09.600Z,3.20
2023-01-28T05:47:26.162Z,3.70
2023-01-28T05:49:50.279Z,3.60
2023-01-28T05:52:18.310Z,3.90
2023-01-28T05:54:31.133Z,3.60
2023-01-28T05:56:45.247Z,3.20
2023-01-28T05:58:58.123Z,3.60
2023-01-28T06:01:11.165Z,3.40
2023-01-28T06:03:26.870Z,3.20
2023-01-28T06:05:39.430Z,3.90
2023-01-28T06:07:53.404Z,3.10
2023-01-28T06:10:06.252Z,3.30
2023-01-28T06:12:19.280Z,4.20
2023-01-28T06:14:51.617Z,3.50
2023-01-28T06:17:42.596Z,4.20
2023-01-28T06:20:09.866Z,3.70
2023-01-28T06:22:25.137Z,3.70
2023-01-28T06:24:38.251Z,4.20
2023-01-28T06:26:54.044Z,3.60
2023-01-28T06:29:07.051Z,3.40
2023-01-28T06:31:19.413Z,3.70
2023-01-28T06:33:32.068Z,4.00
2023-01-28T06:35:45.882Z,3.50
2023-01-28T06:37:58.785Z,3.50
2023-01-28T06:40:13.202Z,3.50
2023-01-28T06:42:26.414Z,3.20
2023-01-28T06:44:39.043Z,3.30
2023-01-28T06:46:51.669Z,3.20
2023-01-28T06:49:04.804Z,3.20
2023-01-28T06:51:17.664Z,3.50
2023-01-28T06:53:30.368Z,3.00
2023-01-28T06:55:43.007Z,3.00
2023-01-28T06:57:56.012Z,2.90
2023-01-28T07:00:11.301Z,3.00
2023-01-28T07:02:27.323Z,2.50
2023-01-28T07:04:40.606Z,3.70
2023-01-28T07:06:53.471Z,3.20
2023-01-28T07:09:06.393Z,2.60
2023-01-28T07:11:19.247Z,3.00
2023-01-28T07:13:32.335Z,2.70
2023-01-28T07:15:46.225Z,3.30
2023-01-28T07:17:59.755Z,2.80
2023-01-28T07:20:15.584Z,3.10
2023-01-28T07:22:29.074Z,2.80
2023-01-28T07:24:41.594Z,3.00
2023-01-28T07:26:56.185Z,2.90
2023-01-28T07:29:12.515Z,2.70
2023-01-28T07:31:25.219Z,3.00
2023-01-28T07:33:38.309Z,3.30
2023-01-28T07:35:51.489Z,2.80
2023-01-28T07:38:05.568Z,2.30
2023-01-28T07:40:18.946Z,3.00
2023-01-28T07:42:31.839Z,3.00
2023-01-28T07:44:49.556Z,2.80
2023-01-28T07:47:02.642Z,2.90
2023-01-28T07:49:15.224Z,3.10
2023-01-28T07:51:27.919Z,3.30
2023-01-28T07:53:40.562Z,2.40
2023-01-28T07:55:53.483Z,2.80
2023-01-28T07:58:07.127Z,2.80
2023-01-28T08:00:21.690Z,2.80
2023-01-28T08:02:34.308Z,2.80
2023-01-28T08:04:47.126Z,3.10
2023-01-28T08:07:00.341Z,2.60
2023-01-28T08:09:13.144Z,2.90
2023-01-28T08:11:26.198Z,3.10
2023-01-28T08:13:39.165Z,2.60
2023-01-28T08:15:52.364Z,3.00
2023-01-28T08:18:07.119Z,2.90
2023-01-28T08:20:21.239Z,2.90
2023-01-28T08:22:33.951Z,2.90
2023-01-28T08:24:46.477Z,2.40
2023-01-28T08:26:58.949Z,2.90
2023-01-28T08:29:11.716Z,2.60
2023-01-28T08:31:26.684Z,3.30
2023-01-28T08:33:39.629Z,2.70
2023-01-28T08:35:52.310Z,3.40
2023-01-28T08:38:06.016Z,3.00
2023-01-28T08:40:20.272Z,2.70
2023-01-28T08:42:33.461Z,2.70
2023-01-28T08:44:45.909Z,2.40
2023-01-28T08:46:58.579Z,2.70
2023-01-28T08:49:11.157Z,2.60
2023-01-28T08:51:23.870Z,2.50
2023-01-28T08:53:36.690Z,2.20
2023-01-28T08:55:50.549Z,2.10
2023-01-28T08:58:05.564Z,2.10
2023-01-28T09:00:19.799Z,2.20
2023-01-28T09:02:32.758Z,2.80
2023-01-28T09:04:45.589Z,2.40
2023-01-28T09:06:58.684Z,1.90
2023-01-28T09:09:11.076Z,2.30
2023-01-28T09:11:24.001Z,2.30
2023-01-28T09:13:36.689Z,2.00
2023-01-28T09:15:49.067Z,2.20
2023-01-28T09:18:05.405Z,2.70
2023-01-28T09:20:18.913Z,2.30
2023-01-28T09:22:31.540Z,2.60
2023-01-28T09:24:47.075Z,2.10
2023-01-28T09:26:59.866Z,1.80
2023-01-28T09:29:12.567Z,2.10
2023-01-28T09:31:25.250Z,2.30
2023-01-28T09:33:39.697Z,2.40
2023-01-28T09:35:52.254Z,2.00
2023-01-28T09:38:05.165Z,1.80
2023-01-28T09:40:22.587Z,2.10
2023-01-28T09:42:51.114Z,1.80
2023-01-28T09:45:12.606Z,2.40
2023-01-28T09:47:29.878Z,3.60
2023-01-28T09:49:47.236Z,2.30
2023-01-28T09:52:00.430Z,2.20
2023-01-28T09:54:23.619Z,2.30
2023-01-28T09:56:39.726Z,2.80
2023-01-28T09:58:52.237Z,2.20
2023-01-28T10:01:11.890Z,2.40
2023-01-28T10:03:40.570Z,2.20
2023-01-28T10:06:03.581Z,2.50
2023-01-28T10:08:30.640Z,2.60
2023-01-28T10:10:47.959Z,2.50
2023-01-28T10:13:23.187Z,2.10
2023-01-28T10:15:56.769Z,1.40
2023-01-28T10:18:18.187Z,2.00
2023-01-28T10:20:37.158Z,1.90
2023-01-28T10:22:54.318Z,1.70
2023-01-28T10:25:10.685Z,1.70
2023-01-28T10:27:26.743Z,2.20
2023-01-28T10:29:45.035Z,2.20
2023-01-28T10:32:02.889Z,1.50
2023-01-28T10:34:15.496Z,2.10
2023-01-28T10:36:28.923Z,2.20
2023-01-28T10:38:42.767Z,2.80
2023-01-28T10:40:56.293Z,2.00
2023-01-28T10:43:09.875Z,2.00
2023-01-28T10:45:25.458Z,2.30
2023-01-28T10:47:42.067Z,2.50
2023-01-28T10:50:00.825Z,3.00
2023-01-28T10:52:19.596Z,2.50
2023-01-28T10:54:33.121Z,2.10
2023-01-28T10:56:49.381Z,2.60
2023-01-28T10:59:05.398Z,2.30
2023-01-28T11:01:18.896Z,2.30
2023-01-28T11:03:32.327Z,2.40
2023-01-28T11:05:57.427Z,2.30
2023-01-28T11:08:24.182Z,1.80
2023-01-28T11:10:39.172Z,1.60
2023-01-28T11:13:01.028Z,1.60
2023-01-28T11:15:23.610Z,1.60
2023-01-28T11:17:39.567Z,2.50
2023-01-28T11:19:54.629Z,2.00
2023-01-28T11:22:08.144Z,2.40
2023-01-28T11:24:25.149Z,2.10
2023-01-28T11:26:40.289Z,2.30
2023-01-28T11:28:54.117Z,2.20
2023-01-28T11:31:07.877Z,2.20
2023-01-28T11:33:25.174Z,1.50
2023-01-28T11:35:37.991Z,1.90
2023-01-28T11:37:54.713Z,2.20
2023-01-28T11:40:23.368Z,2.60
2023-01-28T11:42:36.393Z,2.20
2023-01-28T11:44:49.436Z,1.70
2023-01-28T11:47:19.375Z,2.00
2023-01-28T11:49:42.910Z,1.50
2023-01-28T11:52:05.138Z,1.70
2023-01-28T11:54:42.185Z,1.80
2023-01-28T11:57:04.816Z,1.30
2023-01-28T11:59:37.985Z,1.50
2023-01-28T12:01:58.318Z,2.10
2023-01-28T12:04:37.414Z,1.60
2023-01-28T12:07:08.926Z,1.40
2023-01-28T12:09:31.052Z,1.60
2023-01-28T12:12:16.864Z,2.10
2023-01-28T12:14:38.933Z,1.60
2023-01-28T12:17:01.780Z,1.40
2023-01-28T12:19:26.773Z,1.50
2023-01-28T12:21:55.580Z,1.80
2023-01-28T12:24:23.696Z,1.50
2023-01-28T12:26:46.063Z,1.30
2023-01-28T12:29:18.770Z,1.80
2023-01-28T12:31:54.907Z,1.90
2023-01-28T12:34:32.323Z,1.50
2023-01-28T12:36:59.641Z,1.50
2023-01-28T12:39:21.834Z,1.40
2023-01-28T12:44:07.389Z,1.60
2023-01-28T12:48:41.055Z,1.60
2023-01-28T12:50:58.141Z,1.50
2023-01-28T12:53:25.347Z,1.70
2023-01-28T12:55:47.225Z,1.70
2023-01-28T12:58:03.058Z,1.60
2023-01-28T13:00:30.197Z,1.70
2023-01-28T13:02:46.453Z,1.50
2023-01-28T13:05:09.333Z,1.60
2023-01-28T13:07:26.583Z,1.80
2023-01-28T13:09:44.058Z,1.80
2023-01-28T13:12:00.360Z,1.70
2023-01-28T13:14:16.637Z,1.60
2023-01-28T13:16:37.263Z,1.30
2023-01-28T13:18:53.661Z,1.60
2023-01-28T13:21:11.412Z,2.10
2023-01-28T13:23:40.942Z,1.80
2023-01-28T13:25:57.423Z,2.00
2023-01-28T13:28:24.096Z,1.60
2023-01-28T13:30:38.801Z,2.00
2023-01-28T13:33:02.651Z,1.50
2023-01-28T13:35:32.821Z,1.60
2023-01-28T13:37:48.307Z,1.60
2023-01-28T13:40:06.164Z,1.30
2023-01-28T13:42:32.262Z,1.80
2023-01-28T13:44:45.731Z,1.60
2023-01-28T13:46:59.348Z,1.60
2023-01-28T13:49:21.691Z,1.60
2023-01-28T13:51:36.932Z,1.80
2023-01-28T13:53:54.565Z,1.50
2023-01-28T13:56:13.655Z,1.60
2023-01-28T13:59:13.798Z,1.70
2023-01-28T14:02:10.304Z,1.40
2023-01-28T14:04:52.233Z,1.40
2023-01-28T14:07:30.166Z,1.60
2023-01-28T14:10:20.785Z,1.30
2023-01-28T14:13:01.785Z,1.70
2023-01-28T14:15:25.508Z,2.30
2023-01-28T14:17:45.736Z,2.10
2023-01-28T14:20:00.840Z,2.40
2023-01-28T14:22:22.421Z,2.00
2023-01-28T14:24:35.308Z,2.50
2023-01-28T14:26:56.260Z,2.60
2023-01-28T14:29:19.815Z,2.80
2023-01-28T14:31:35.030Z,2.60
2023-01-28T14:33:48.011Z,3.30
2023-01-28T14:36:01.524Z,2.50
2023-01-28T14:38:20.020Z,2.70
2023-01-28T14:40:35.599Z,2.40
2023-01-28T14:42:51.073Z,2.40
2023-01-28T14:45:20.491Z,2.20
2023-01-28T14:47:55.871Z,1.80
2023-01-28T14:50:26.721Z,1.70
2023-01-28T14:53:02.016Z,1.80
2023-01-28T14:55:30.281Z,2.20
2023-01-28T14:57:54.098Z,2.10
2023-01-28T15:00:09.311Z,2.20
2023-01-28T15:02:27.452Z,2.20
2023-01-28T15:04:40.500Z,1.80
2023-01-28T15:06:53.151Z,2.30
2023-01-28T15:09:16.727Z,2.30
2023-01-28T15:11:30.947Z,2.50
2023-01-28T15:13:46.770Z,1.60
2023-01-28T15:16:01.693Z,2.10
2023-01-28T15:18:22.443Z,2.50
2023-01-28T15:20:35.414Z,2.50
2023-01-28T15:22:48.351Z,2.20
2023-01-28T15:25:01.248Z,2.00
2023-01-28T15:27:24.095Z,2.30
2023-01-28T15:29:40.624Z,2.00
2023-01-28T15:31:53.968Z,2.00
2023-01-28T15:34:14.082Z,1.90
2023-01-28T15:36:28.054Z,2.30
2023-01-28T15:38:40.497Z,2.00
2023-01-28T15:40:57.852Z,2.00
2023-01-28T15:43:19.215Z,1.70
2023-01-28T15:45:36.028Z,2.30
2023-01-28T15:47:49.032Z,2.10
2023-01-28T15:50:06.263Z,1.80
2023-01-28T15:52:19.294Z,1.70
2023-01-28T15:54:33.238Z,2.10
2023-01-28T15:56:46.041Z,1.60
2023-01-28T15:58:59.721Z,2.10
2023-01-28T16:01:22.635Z,2.00
2023-01-28T16:03:37.567Z,2.10
2023-01-28T16:06:02.503Z,2.00
2023-01-28T16:08:23.779Z,2.00
2023-01-28T16:10:36.490Z,1.90
2023-01-28T16:12:54.985Z,1.70
2023-01-28T16:15:09.612Z,2.10
2023-01-28T16:17:29.579Z,1.70
2023-01-28T16:19:51.259Z,1.60
2023-01-28T16:22:08.148Z,1.90
2023-01-28T16:24:31.309Z,1.60
2023-01-28T16:26:43.969Z,1.80
2023-01-28T16:28:56.707Z,1.90
2023-01-28T16:31:09.560Z,1.80
2023-01-28T16:33:27.045Z,1.80
2023-01-28T16:36:03.552Z,1.50
2023-01-28T16:38:17.881Z,1.80
2023-01-28T16:40:30.841Z,1.60
2023-01-28T16:42:46.738Z,1.50
2023-01-28T16:44:59.804Z,1.40
2023-01-28T16:47:14.139Z,1.70
2023-01-28T16:49:27.046Z,1.60
2023-01-28T16:51:41.541Z,2.00
2023-01-28T16:53:54.995Z,1.80
2023-01-28T16:56:10.731Z,2.00
2023-01-28T16:58:30.596Z,1.80
2023-01-28T17:00:46.200Z,1.90
2023-01-28T17:03:01.467Z,1.80
2023-01-28T17:05:16.244Z,2.20
2023-01-28T17:07:28.847Z,2.30
2023-01-28T17:09:41.715Z,2.00
2023-01-28T17:11:54.249Z,2.30
2023-01-28T17:14:06.792Z,1.80
2023-01-28T17:16:19.515Z,2.10
2023-01-28T17:18:31.937Z,2.00
2023-01-28T17:20:45.209Z,2.00
2023-01-28T17:22:57.676Z,2.30
2023-01-28T17:25:11.779Z,2.10
2023-01-28T17:27:24.323Z,2.20
2023-01-28T17:29:37.693Z,2.00
2023-01-28T17:31:50.432Z,2.10
2023-01-28T17:34:04.198Z,2.70
2023-01-28T17:36:17.644Z,2.30
2023-01-28T17:38:30.327Z,2.50
2023-01-28T17:40:42.656Z,2.60
2023-01-28T17:42:55.513Z,2.20
2023-01-28T17:45:08.570Z,2.50
2023-01-28T17:47:23.855Z,2.90
2023-01-28T17:49:36.601Z,2.60
2023-01-28T17:51:49.776Z,3.00
2023-01-28T17:54:02.621Z,2.70
2023-01-28T17:56:23.716Z,2.20
2023-01-28T17:58:36.540Z,2.10
2023-01-28T18:00:49.106Z,2.50
2023-01-28T18:03:02.140Z,2.90
2023-01-28T18:05:16.319Z,2.40
2023-01-28T18:07:29.682Z,2.60
2023-01-28T18:09:43.648Z,2.20
2023-01-28T18:11:56.565Z,1.90
2023-01-28T18:14:09.538Z,2.10
2023-01-28T18:16:26.719Z,2.00
2023-01-28T18:18:39.337Z,2.20
2023-01-28T18:20:59.221Z,1.90
2023-01-28T18:23:11.917Z,2.30
2023-01-28T18:25:24.830Z,2.40
2023-01-28T18:27:38.441Z,2.40
2023-01-28T18:29:53.764Z,2.10
2023-01-28T18:32:07.485Z,1.70
2023-01-28T18:34:21.193Z,2.10
2023-01-28T18:36:34.166Z,2.00
2023-01-28T18:38:50.522Z,1.80
2023-01-28T18:41:05.921Z,2.10
2023-01-28T18:43:19.206Z,2.30
2023-01-28T18:45:32.230Z,1.80
2023-01-28T18:47:44.629Z,2.30
2023-01-28T18:49:57.252Z,2.00
2023-01-28T18:52:13.155Z,2.10
2023-01-28T18:54:28.611Z,2.00
2023-01-28T18:56:41.630Z,2.20
2023-01-28T18:58:57.743Z,2.30
2023-01-28T19:01:15.227Z,2.00
2023-01-28T19:03:28.508Z,2.20
2023-01-28T19:05:42.994Z,2.10
2023-01-28T19:07:56.074Z,2.20
2023-01-28T19:10:09.395Z,2.10
2023-01-28T19:12:22.501Z,2.40
2023-01-28T19:14:35.739Z,2.00
2023-01-28T19:16:49.367Z,2.40
2023-01-28T19:19:03.998Z,2.30
2023-01-28T19:21:16.745Z,2.10
2023-01-28T19:23:47.944Z,2.60
2023-01-28T19:26:04.997Z,2.50
2023-01-28T19:28:17.649Z,2.70
2023-01-28T19:30:35.908Z,2.10
2023-01-28T19:32:48.681Z,2.20
2023-01-28T19:35:01.787Z,2.30
2023-01-28T19:37:18.119Z,2.40
2023-01-28T19:39:32.411Z,1.90
2023-01-28T19:41:48.193Z,2.20
2023-01-28T19:44:01.189Z,2.20
2023-01-28T19:46:17.349Z,2.00
2023-01-28T19:48:33.587Z,2.40
2023-01-28T19:50:46.221Z,2.00
2023-01-28T19:52:59.253Z,1.80
2023-01-28T19:55:14.326Z,2.30
2023-01-28T19:57:27.206Z,2.30
2023-01-28T19:59:40.178Z,2.20
2023-01-28T20:01:53.395Z,2.40
2023-01-28T20:04:07.327Z,2.30
2023-01-28T20:06:23.876Z,2.20
2023-01-28T20:08:36.909Z,1.70
2023-01-28T20:10:49.672Z,2.00
2023-01-28T20:13:05.021Z,2.50
2023-01-28T20:15:20.872Z,2.30
2023-01-28T20:17:33.617Z,2.30
2023-01-28T20:19:50.491Z,2.70
2023-01-28T20:22:03.410Z,2.70
2023-01-28T20:24:19.317Z,2.60
2023-01-28T20:26:34.805Z,3.00
2023-01-28T20:28:48.287Z,3.20
2023-01-28T20:31:06.576Z,2.80
2023-01-28T20:33:20.169Z,2.60
2023-01-28T20:35:32.733Z,2.50
2023-01-28T20:37:45.443Z,3.20
2023-01-28T20:39:58.276Z,2.80
2023-01-28T20:42:11.891Z,2.30
2023-01-28T20:44:27.877Z,2.50
2023-01-28T20:46:40.604Z,2.10
2023-01-28T20:48:56.944Z,2.60
2023-01-28T20:51:14.068Z,2.10
2023-01-28T20:53:26.676Z,2.60
2023-01-28T20:55:39.914Z,2.20
2023-01-28T20:57:52.845Z,2.20
2023-01-28T21:00:05.723Z,2.90
2023-01-28T21:02:19.449Z,2.90
2023-01-28T21:04:34.867Z,3.30
2023-01-28T21:06:50.321Z,3.00
2023-01-28T21:09:05.695Z,3.10
2023-01-28T21:11:18.848Z,2.80
2023-01-28T21:13:31.838Z,2.30
2023-01-28T21:15:46.672Z,2.70
2023-01-28T21:17:59.687Z,3.00
2023-01-28T21:20:15.025Z,2.50
2023-01-28T21:22:31.310Z,2.60
2023-01-28T21:24:44.861Z,2.30
2023-01-28T21:26:59.011Z,2.30
2023-01-28T21:29:15.641Z,2.80
2023-01-28T21:31:29.888Z,2.50
2023-01-28T21:33:42.736Z,2.30
2023-01-28T21:35:58.448Z,2.60
2023-01-28T21:38:17.066Z,2.90
2023-01-28T21:40:34.604Z,2.30
2023-01-28T21:42:48.357Z,2.90
2023-01-28T21:45:01.661Z,2.80
2023-01-28T21:47:14.866Z,3.00
2023-01-28T21:49:27.811Z,2.30
2023-01-28T21:51:47.032Z,2.50
2023-01-28T21:54:00.187Z,2.30
2023-01-28T21:56:14.920Z,2.40
2023-01-28T21:58:43.934Z,2.80
2023-01-28T22:00:56.683Z,2.00
2023-01-28T22:03:09.369Z,2.20
2023-01-28T22:05:22.029Z,1.70
2023-01-28T22:07:40.889Z,1.60
2023-01-28T22:09:53.840Z,1.80
2023-01-28T22:12:07.946Z,2.30
2023-01-28T22:14:22.942Z,2.30
2023-01-28T22:16:37.903Z,3.80
2023-01-28T22:18:54.354Z,3.00
2023-01-28T22:21:08.319Z,2.50
2023-01-28T22:23:23.719Z,2.30
2023-01-28T22:25:37.505Z,2.00
2023-01-28T22:27:54.068Z,1.40
2023-01-28T22:30:06.693Z,1.80
2023-01-28T22:32:21.861Z,2.10
2023-01-28T22:34:34.557Z,2.50
2023-01-28T22:36:47.242Z,2.10
2023-01-28T22:39:00.401Z,2.40
2023-01-28T22:41:14.733Z,2.70
2023-01-28T22:43:29.767Z,2.60
2023-01-28T22:45:42.555Z,2.00
2023-01-28T22:47:58.155Z,3.00
2023-01-28T22:50:16.085Z,2.40
2023-01-28T22:52:28.749Z,2.00
2023-01-28T22:54:41.319Z,1.90
2023-01-28T22:56:54.194Z,1.70
2023-01-28T22:59:09.646Z,1.60
2023-01-28T23:01:25.682Z,1.30
2023-01-28T23:03:39.507Z,1.20
2023-01-28T23:05:53.197Z,1.10
2023-01-28T23:08:13.020Z,1.20
2023-01-28T23:10:26.493Z,1.30
2023-01-28T23:12:42.624Z,1.00
2023-01-28T23:15:11.480Z,1.20
2023-01-28T23:17:40.880Z,1.00
2023-01-28T23:20:09.926Z,0.90
2023-01-28T23:22:43.190Z,0.90
2023-01-28T23:24:56.380Z,1.00
2023-01-28T23:27:09.446Z,1.10
2023-01-28T23:29:26.752Z,0.90
2023-01-28T23:31:42.675Z,1.30
2023-01-28T23:33:59.298Z,1.60
2023-01-28T23:36:12.554Z,1.70
2023-01-28T23:38:25.576Z,2.10
2023-01-28T23:40:39.645Z,1.80
2023-01-28T23:42:56.951Z,1.90
2023-01-28T23:45:17.274Z,2.10
2023-01-28T23:47:30.278Z,2.20
2023-01-28T23:49:43.648Z,2.30
2023-01-28T23:51:58.931Z,2.60
2023-01-28T23:54:11.948Z,2.70
2023-01-28T23:56:25.187Z,2.20
2023-01-28T23:58:43.945Z,2.10
